KTPH

Tonopah Airport

Tonopah, Nevada, USA
METAR KTPH 231056Z AUTO 01007KT 10SM CLR M05/M08 A3029 RMK AO2 SLP268 T10501078
Observed Flight Rules
Jan-23 @ 10:56 UTC (an hour ago) Visual Flight Rules
Wind Visibility Clouds
10° at 7 knots 10 miles
  • Clear skies
Temperatures Readings
Current -5°C / 23°F
Dewpoint -8°C / 18°F
Humidity 80%
Altimeter 30.29" Hg
Pressure 1026.8 hPa
Elevation 1652
METAR KTPH 231056Z AUTO 01007KT 10SM CLR M05/M08 A3029 RMK AO2 SLP268 T10501078
Observed Flight Rules
Jan-23 @ 10:56 UTC
(an hour ago)
VFR
Wind Visibility
10° at 7 knots 10 miles
Clouds
  • Clear skies
Temperature Dewpoint
-5°C / 23°F -8°C / 18°F
Humidity Altimeter Pressure
80% 30.29" Hg 1026.8 hPa